createdAt,value
2022-07-29T00:01:03.019Z,62.62
2022-07-29T00:03:29.509Z,62.90
2022-07-29T00:05:56.232Z,63.73
2022-07-29T00:08:22.684Z,66.33
2022-07-29T00:10:50.264Z,65.30
2022-07-29T00:13:16.726Z,65.47
2022-07-29T00:15:43.192Z,67.42
2022-07-29T00:18:09.664Z,66.96
2022-07-29T00:20:36.172Z,66.15
2022-07-29T00:23:02.640Z,66.39
2022-07-29T00:25:29.131Z,66.10
2022-07-29T00:27:55.613Z,64.34
2022-07-29T00:30:22.112Z,63.40
2022-07-29T00:32:48.592Z,63.39
2022-07-29T00:35:33.763Z,64.01
2022-07-29T00:38:00.239Z,65.20
2022-07-29T00:40:28.561Z,64.87
2022-07-29T00:42:55.059Z,65.95
2022-07-29T00:45:22.858Z,67.09
2022-07-29T00:47:50.429Z,65.75
2022-07-29T00:50:16.901Z,65.35
2022-07-29T00:52:43.483Z,67.00
2022-07-29T00:55:14.699Z,67.86
2022-07-29T00:57:41.803Z,67.98
2022-07-29T01:00:10.522Z,67.46
2022-07-29T01:02:37.027Z,66.75
2022-07-29T01:05:04.641Z,66.90
2022-07-29T01:07:31.170Z,67.27
2022-07-29T01:09:57.802Z,67.70
2022-07-29T01:12:27.855Z,66.65
2022-07-29T01:14:54.606Z,66.96
2022-07-29T01:17:27.325Z,65.21
2022-07-29T01:20:07.286Z,66.26
2022-07-29T01:23:02.890Z,66.52
2022-07-29T01:26:06.563Z,67.41
2022-07-29T01:28:57.882Z,67.91
2022-07-29T01:32:02.862Z,66.18
2022-07-29T01:34:55.675Z,67.38
2022-07-29T01:37:28.931Z,67.91
2022-07-29T01:39:57.299Z,68.21
2022-07-29T01:42:29.007Z,67.05
2022-07-29T01:45:03.212Z,67.13
2022-07-29T01:47:35.790Z,68.14
2022-07-29T01:50:02.464Z,68.18
2022-07-29T01:52:33.357Z,69.69
2022-07-29T01:55:00.343Z,67.44
2022-07-29T01:57:28.481Z,67.32
2022-07-29T01:59:54.969Z,67.99
2022-07-29T02:02:21.464Z,67.23
2022-07-29T02:04:49.513Z,66.60
2022-07-29T02:07:18.314Z,67.27
2022-07-29T02:09:44.800Z,67.97
2022-07-29T02:12:11.291Z,68.30
2022-07-29T02:14:49.023Z,70.41
2022-07-29T02:17:16.424Z,69.46
2022-07-29T02:19:42.933Z,69.82
2022-07-29T02:22:09.745Z,69.30
2022-07-29T02:24:37.054Z,69.14
2022-07-29T02:27:03.595Z,68.64
2022-07-29T02:29:30.134Z,69.50
2022-07-29T02:31:56.670Z,69.90
2022-07-29T02:34:23.189Z,70.04
2022-07-29T02:36:49.730Z,68.94
2022-07-29T02:39:16.305Z,69.36
2022-07-29T02:41:48.853Z,70.29
2022-07-29T02:44:17.249Z,71.46
2022-07-29T02:47:18.470Z,72.17
2022-07-29T02:50:09.450Z,70.05
2022-07-29T02:52:41.996Z,71.01
2022-07-29T02:55:08.347Z,69.90
2022-07-29T02:57:54.664Z,70.95
2022-07-29T03:00:21.741Z,70.85
2022-07-29T03:02:51.535Z,70.80
2022-07-29T03:05:19.465Z,72.73
2022-07-29T03:07:53.872Z,72.75
2022-07-29T03:10:20.543Z,73.27
2022-07-29T03:12:47.040Z,74.23
2022-07-29T03:15:13.541Z,73.36
2022-07-29T03:17:40.080Z,72.05
2022-07-29T03:20:09.096Z,72.04
2022-07-29T03:22:44.306Z,71.33
2022-07-29T03:25:11.949Z,71.63
2022-07-29T03:27:38.457Z,72.47
2022-07-29T03:30:08.892Z,71.70
2022-07-29T03:32:35.789Z,71.82
2022-07-29T03:35:02.338Z,72.78
2022-07-29T03:37:28.891Z,73.16
2022-07-29T03:39:56.216Z,72.22
2022-07-29T03:42:24.424Z,72.44
2022-07-29T03:44:50.906Z,70.88
2022-07-29T03:47:18.665Z,73.37
2022-07-29T03:49:48.075Z,74.29
2022-07-29T03:52:14.670Z,73.04
2022-07-29T03:54:41.147Z,71.89
2022-07-29T03:57:07.689Z,73.90
2022-07-29T03:59:34.935Z,74.63
2022-07-29T04:02:03.131Z,74.34
2022-07-29T04:04:29.711Z,74.65
2022-07-29T04:06:56.215Z,76.42
2022-07-29T04:09:22.782Z,76.01
2022-07-29T04:12:01.795Z,75.29
2022-07-29T04:14:32.319Z,73.16
2022-07-29T04:16:58.812Z,71.94
2022-07-29T04:19:25.306Z,71.80
2022-07-29T04:21:52.278Z,72.84
2022-07-29T04:24:19.190Z,71.50
2022-07-29T04:26:49.093Z,69.40
2022-07-29T04:29:15.616Z,69.33
2022-07-29T04:31:42.630Z,68.87
2022-07-29T04:34:10.003Z,69.38
2022-07-29T04:36:36.518Z,68.60
2022-07-29T04:39:03.521Z,68.68
2022-07-29T04:41:32.794Z,69.08
2022-07-29T04:44:01.960Z,67.95
2022-07-29T04:46:28.722Z,67.30
2022-07-29T04:48:55.330Z,67.78
2022-07-29T04:51:21.900Z,66.69
2022-07-29T04:53:48.783Z,67.16
2022-07-29T04:56:15.296Z,68.25
2022-07-29T04:58:41.817Z,67.09
2022-07-29T05:01:08.393Z,65.54
2022-07-29T05:03:34.908Z,64.40
2022-07-29T05:06:01.416Z,64.38
2022-07-29T05:08:27.909Z,66.18
2022-07-29T05:10:54.426Z,66.22
2022-07-29T05:13:20.910Z,67.21
2022-07-29T05:15:47.474Z,66.13
2022-07-29T05:18:14.026Z,66.63
2022-07-29T05:20:40.571Z,65.13
2022-07-29T05:23:07.084Z,67.04
2022-07-29T05:25:43.240Z,68.01
2022-07-29T05:28:11.279Z,64.45
2022-07-29T05:30:37.927Z,62.98
2022-07-29T05:33:04.475Z,63.54
2022-07-29T05:35:31.016Z,64.38
2022-07-29T05:37:57.498Z,65.17
2022-07-29T05:40:23.977Z,65.78
2022-07-29T05:42:50.471Z,66.44
2022-07-29T05:45:16.961Z,65.18
2022-07-29T05:47:43.483Z,65.09
2022-07-29T05:50:10.091Z,69.46
2022-07-29T05:52:36.588Z,65.53
2022-07-29T05:55:05.239Z,67.21
2022-07-29T05:57:31.957Z,65.61
2022-07-29T05:59:58.448Z,67.69
2022-07-29T06:02:25.416Z,66.10
2022-07-29T06:04:51.982Z,64.00
2022-07-29T06:07:18.888Z,64.08
2022-07-29T06:09:45.376Z,64.27
2022-07-29T06:12:11.883Z,66.53
2022-07-29T06:14:39.152Z,67.42
2022-07-29T06:17:06.582Z,69.26
2022-07-29T06:19:35.257Z,69.51
2022-07-29T06:22:01.768Z,66.63
2022-07-29T06:24:28.280Z,65.98
2022-07-29T06:26:54.844Z,66.03
2022-07-29T06:29:21.328Z,65.28
2022-07-29T06:31:47.891Z,65.26
2022-07-29T06:34:14.758Z,67.46
2022-07-29T06:36:41.844Z,68.16
2022-07-29T06:39:08.530Z,67.52
2022-07-29T06:41:35.060Z,68.55
2022-07-29T06:44:01.554Z,66.51
2022-07-29T06:46:28.646Z,66.88
2022-07-29T06:48:55.510Z,67.64
2022-07-29T06:51:23.171Z,66.28
2022-07-29T06:54:00.581Z,64.78
2022-07-29T06:56:39.016Z,64.81
2022-07-29T06:59:07.107Z,66.13
2022-07-29T07:01:33.697Z,65.97
2022-07-29T07:04:00.239Z,64.00
2022-07-29T07:06:26.801Z,65.56
2022-07-29T07:08:53.307Z,66.62
2022-07-29T07:11:19.844Z,64.93
2022-07-29T07:13:46.328Z,63.47
2022-07-29T07:16:12.866Z,64.28
2022-07-29T07:18:39.405Z,66.74
2022-07-29T07:21:06.650Z,64.04
2022-07-29T07:23:33.147Z,63.23
2022-07-29T07:25:59.651Z,62.79
2022-07-29T07:28:26.135Z,64.84
2022-07-29T07:30:53.164Z,64.68
2022-07-29T07:33:19.756Z,65.44
2022-07-29T07:35:46.439Z,65.75
2022-07-29T07:38:12.939Z,62.21
2022-07-29T07:40:39.472Z,62.89
2022-07-29T07:43:05.954Z,62.20
2022-07-29T07:45:33.953Z,60.40
2022-07-29T07:48:00.746Z,64.34
2022-07-29T07:50:27.282Z,60.82
2022-07-29T07:52:55.904Z,61.43
2022-07-29T07:55:22.474Z,64.39
2022-07-29T07:57:48.965Z,64.81
2022-07-29T08:00:15.807Z,63.16
2022-07-29T08:02:43.841Z,64.63
2022-07-29T08:05:12.690Z,61.89
2022-07-29T08:07:39.674Z,61.34
2022-07-29T08:10:06.390Z,61.36
2022-07-29T08:12:32.903Z,61.14
2022-07-29T08:14:59.498Z,62.15
2022-07-29T08:17:26.245Z,62.10
2022-07-29T08:19:52.770Z,64.38
2022-07-29T08:22:19.277Z,63.97
2022-07-29T08:24:53.223Z,61.64
2022-07-29T08:27:42.541Z,61.96
2022-07-29T08:30:08.008Z,61.07
2022-07-29T08:32:52.769Z,61.63
2022-07-29T08:35:20.856Z,59.42
2022-07-29T08:37:47.646Z,58.44
2022-07-29T08:40:15.098Z,59.01
2022-07-29T08:42:41.907Z,57.88
2022-07-29T08:45:08.885Z,60.77
2022-07-29T08:47:39.491Z,59.81
2022-07-29T08:50:09.809Z,57.27
2022-07-29T08:52:40.709Z,59.50
2022-07-29T08:55:09.951Z,57.45
2022-07-29T08:57:37.211Z,58.18
2022-07-29T09:00:08.112Z,59.89
2022-07-29T09:02:41.168Z,58.66
2022-07-29T09:05:08.031Z,59.42
2022-07-29T09:07:35.239Z,57.10
2022-07-29T09:10:02.377Z,60.79
2022-07-29T09:12:32.724Z,58.26
2022-07-29T09:15:01.326Z,59.09
2022-07-29T09:17:54.038Z,59.12
2022-07-29T09:20:23.174Z,58.56
2022-07-29T09:22:50.507Z,57.37
2022-07-29T09:25:36.124Z,57.67
2022-07-29T09:28:17.362Z,58.34
2022-07-29T09:30:56.478Z,58.53
2022-07-29T09:33:23.562Z,58.71
2022-07-29T09:36:06.308Z,60.33
2022-07-29T09:38:37.298Z,57.40
2022-07-29T09:41:05.946Z,58.91
2022-07-29T09:43:33.053Z,57.03
2022-07-29T09:46:12.993Z,57.46
2022-07-29T09:48:39.618Z,57.39
2022-07-29T09:51:07.411Z,58.23
2022-07-29T09:53:35.304Z,56.51
2022-07-29T09:56:01.863Z,52.65
2022-07-29T09:58:28.445Z,51.84
2022-07-29T10:00:55.906Z,51.47
2022-07-29T10:03:22.638Z,51.74
2022-07-29T10:06:09.265Z,52.04
2022-07-29T10:08:35.963Z,51.53
2022-07-29T10:11:13.272Z,52.99
2022-07-29T10:13:40.324Z,54.50
2022-07-29T10:16:06.994Z,53.75
2022-07-29T10:18:33.629Z,53.77
2022-07-29T10:21:02.130Z,55.77
2022-07-29T10:23:29.351Z,58.02
2022-07-29T10:26:13.172Z,60.98
2022-07-29T10:28:39.650Z,64.33
2022-07-29T10:31:07.419Z,68.86
2022-07-29T10:33:39.985Z,68.56
2022-07-29T10:36:06.437Z,70.57
2022-07-29T10:39:11.410Z,72.67
2022-07-29T10:41:56.195Z,70.97
2022-07-29T10:44:23.967Z,69.07
2022-07-29T10:46:51.464Z,71.43
2022-07-29T10:49:25.105Z,68.36
2022-07-29T10:51:59.225Z,68.02
2022-07-29T10:54:43.707Z,66.26
2022-07-29T10:57:53.593Z,66.18
2022-07-29T11:00:17.004Z,65.83
2022-07-29T11:02:45.345Z,61.16
2022-07-29T11:05:13.287Z,62.47
2022-07-29T11:07:45.911Z,63.98
2022-07-29T11:10:12.951Z,65.14
2022-07-29T11:12:43.651Z,65.02
2022-07-29T11:15:13.573Z,65.78
2022-07-29T11:17:55.396Z,62.82
2022-07-29T11:21:00.654Z,63.64
2022-07-29T11:23:33.344Z,60.59
2022-07-29T11:26:26.151Z,61.87
2022-07-29T11:28:56.922Z,62.01
2022-07-29T11:31:33.975Z,62.33
2022-07-29T11:34:22.954Z,64.57
2022-07-29T11:37:13.601Z,60.43
2022-07-29T11:39:41.022Z,63.18
2022-07-29T11:42:32.079Z,61.15
2022-07-29T11:45:44.360Z,60.64
2022-07-29T11:47:55.108Z,60.78
2022-07-29T11:50:29.978Z,60.52
2022-07-29T11:52:56.764Z,60.01
2022-07-29T11:55:23.914Z,60.82
2022-07-29T12:00:48.935Z,56.45
2022-07-29T12:03:35.546Z,55.00
2022-07-29T12:06:03.268Z,52.93
2022-07-29T12:08:29.998Z,52.24
2022-07-29T12:10:56.749Z,51.37
2022-07-29T12:13:37.169Z,51.53
2022-07-29T12:16:04.934Z,52.21
2022-07-29T12:18:31.899Z,52.55
2022-07-29T12:21:04.608Z,51.19
2022-07-29T12:23:35.010Z,48.56
2022-07-29T12:26:04.384Z,48.61
2022-07-29T12:28:30.939Z,50.16
2022-07-29T12:30:57.491Z,49.14
2022-07-29T12:33:31.120Z,46.77
2022-07-29T12:36:17.157Z,48.09
2022-07-29T12:38:44.426Z,48.09
2022-07-29T12:41:10.933Z,48.40
2022-07-29T12:43:37.447Z,49.19
2022-07-29T12:46:14.205Z,49.65
2022-07-29T12:48:41.787Z,45.16
2022-07-29T12:51:09.690Z,44.22
2022-07-29T12:53:39.058Z,44.63
2022-07-29T12:56:20.664Z,45.10
2022-07-29T12:58:52.811Z,43.17
2022-07-29T13:01:21.054Z,42.46
2022-07-29T13:03:59.769Z,43.42
2022-07-29T13:06:37.028Z,41.88
2022-07-29T13:09:14.473Z,41.54
2022-07-29T13:11:46.538Z,44.29
2022-07-29T13:14:35.731Z,44.59
2022-07-29T13:17:11.086Z,43.13
2022-07-29T13:19:41.804Z,41.26
2022-07-29T13:22:09.612Z,44.09
2022-07-29T13:25:08.698Z,44.05
2022-07-29T13:27:37.394Z,43.48
2022-07-29T13:30:05.956Z,44.75
2022-07-29T13:32:32.624Z,42.45
2022-07-29T13:35:00.376Z,42.91
2022-07-29T13:37:27.297Z,44.47
2022-07-29T13:39:55.076Z,44.02
2022-07-29T13:42:21.699Z,45.09
2022-07-29T13:44:49.603Z,43.40
2022-07-29T13:47:17.120Z,45.38
2022-07-29T13:49:43.670Z,44.34
2022-07-29T13:52:10.158Z,43.92
2022-07-29T13:54:42.296Z,43.33
2022-07-29T13:57:09.326Z,44.14
2022-07-29T13:59:35.842Z,44.86
2022-07-29T14:02:02.440Z,44.96
2022-07-29T14:04:29.022Z,44.45
2022-07-29T14:06:55.602Z,44.10
2022-07-29T14:09:22.122Z,43.89
2022-07-29T14:11:50.626Z,43.41
2022-07-29T14:14:17.240Z,42.43
2022-07-29T14:16:49.225Z,43.20
2022-07-29T14:19:18.753Z,43.58
2022-07-29T14:21:45.840Z,46.12
2022-07-29T14:24:18.005Z,41.59
2022-07-29T14:26:47.968Z,40.47
2022-07-29T14:29:14.558Z,40.10
2022-07-29T14:31:41.171Z,39.46
2022-07-29T14:34:07.765Z,41.02
2022-07-29T14:36:34.290Z,39.87
2022-07-29T14:39:00.831Z,40.11
2022-07-29T14:41:29.130Z,41.45
2022-07-29T14:43:55.739Z,42.50
2022-07-29T14:46:22.284Z,43.08
2022-07-29T14:48:48.910Z,43.30
2022-07-29T14:51:15.481Z,42.81
2022-07-29T14:53:42.054Z,43.45
2022-07-29T14:56:34.334Z,44.10
2022-07-29T14:58:55.050Z,43.91
2022-07-29T15:01:21.750Z,43.25
2022-07-29T15:03:48.393Z,43.96
2022-07-29T15:06:14.900Z,44.11
2022-07-29T15:08:41.461Z,43.93
2022-07-29T15:11:07.954Z,43.20
2022-07-29T15:13:34.842Z,44.56
2022-07-29T15:16:01.456Z,43.78
2022-07-29T15:18:27.965Z,43.42
2022-07-29T15:20:54.464Z,43.21
2022-07-29T15:23:21.046Z,44.12
2022-07-29T15:25:47.542Z,44.53
2022-07-29T15:28:14.042Z,44.95
2022-07-29T15:30:43.412Z,46.00
2022-07-29T15:33:10.368Z,44.92
2022-07-29T15:35:39.956Z,45.29
2022-07-29T15:38:06.865Z,44.69
2022-07-29T15:40:33.419Z,44.37
2022-07-29T15:43:06.373Z,45.10
2022-07-29T15:45:40.639Z,44.30
2022-07-29T15:48:08.117Z,44.70
2022-07-29T15:50:34.814Z,44.58
2022-07-29T15:53:01.420Z,44.34
2022-07-29T15:55:27.956Z,44.51
2022-07-29T15:57:58.573Z,44.46
2022-07-29T16:00:27.103Z,44.42
2022-07-29T16:02:53.604Z,45.99
2022-07-29T16:05:20.123Z,44.97
2022-07-29T16:07:46.656Z,45.01
2022-07-29T16:10:13.206Z,44.76
2022-07-29T16:12:39.713Z,44.77
2022-07-29T16:15:09.882Z,43.95
2022-07-29T16:17:37.720Z,43.65
2022-07-29T16:20:05.720Z,44.30
2022-07-29T16:22:32.266Z,43.50
2022-07-29T16:24:58.774Z,43.64
2022-07-29T16:27:37.459Z,43.59
2022-07-29T16:30:06.131Z,44.77
2022-07-29T16:32:32.641Z,44.59
2022-07-29T16:34:59.164Z,44.18
2022-07-29T16:37:25.865Z,43.29
2022-07-29T16:39:55.412Z,43.51
2022-07-29T16:42:44.211Z,43.04
2022-07-29T16:45:09.005Z,42.91
2022-07-29T16:47:36.089Z,42.93
2022-07-29T16:50:02.602Z,43.44
2022-07-29T16:52:29.144Z,44.51
2022-07-29T16:54:55.669Z,44.77
2022-07-29T16:57:22.233Z,45.84
2022-07-29T16:59:50.948Z,44.99
2022-07-29T17:02:17.627Z,45.98
2022-07-29T17:04:44.191Z,45.25
2022-07-29T17:07:10.698Z,45.63
2022-07-29T17:09:37.316Z,45.87
2022-07-29T17:12:04.069Z,46.25
2022-07-29T17:14:31.105Z,46.68
2022-07-29T17:17:00.460Z,45.72
2022-07-29T17:19:28.979Z,45.15
2022-07-29T17:22:02.346Z,45.42
2022-07-29T17:24:33.544Z,45.07
2022-07-29T17:27:00.367Z,44.44
2022-07-29T17:29:27.145Z,44.97
2022-07-29T17:31:53.678Z,44.82
2022-07-29T17:34:20.227Z,45.20
2022-07-29T17:36:46.853Z,46.17
2022-07-29T17:39:13.411Z,45.72
2022-07-29T17:41:44.790Z,45.31
2022-07-29T17:44:11.282Z,45.95
2022-07-29T17:46:37.990Z,45.05
2022-07-29T17:49:04.745Z,45.17
2022-07-29T17:51:31.294Z,45.67
2022-07-29T17:53:58.289Z,45.84
2022-07-29T17:56:24.981Z,45.80
2022-07-29T17:58:51.574Z,46.43
2022-07-29T18:01:18.229Z,48.33
2022-07-29T18:03:44.762Z,49.38
2022-07-29T18:06:11.271Z,49.31
2022-07-29T18:08:38.900Z,47.98
2022-07-29T18:11:06.350Z,47.28
2022-07-29T18:13:32.937Z,47.02
2022-07-29T18:16:00.623Z,47.12
2022-07-29T18:18:27.432Z,47.26
2022-07-29T18:20:54.003Z,46.54
2022-07-29T18:23:20.515Z,48.09
2022-07-29T18:25:47.058Z,48.80
2022-07-29T18:28:13.590Z,48.93
2022-07-29T18:30:40.105Z,50.23
2022-07-29T18:33:23.942Z,51.21
2022-07-29T18:35:51.616Z,50.86
2022-07-29T18:38:18.157Z,50.67
2022-07-29T18:40:45.788Z,51.82
2022-07-29T18:43:12.711Z,50.71
2022-07-29T18:45:39.494Z,50.32
2022-07-29T18:48:08.360Z,51.61
2022-07-29T18:50:39.573Z,52.73
2022-07-29T18:53:06.090Z,54.91
2022-07-29T18:55:32.896Z,55.58
2022-07-29T18:57:59.580Z,56.78
2022-07-29T19:00:26.207Z,57.67
2022-07-29T19:02:53.063Z,57.66
2022-07-29T19:05:19.796Z,58.13
2022-07-29T19:07:46.305Z,59.17
2022-07-29T19:10:13.545Z,59.43
2022-07-29T19:12:40.090Z,60.58
2022-07-29T19:15:08.129Z,61.01
2022-07-29T19:20:01.292Z,61.62
2022-07-29T19:22:27.821Z,62.56
2022-07-29T19:24:54.345Z,63.61
2022-07-29T19:27:20.844Z,63.79
2022-07-29T19:29:47.823Z,64.41
2022-07-29T19:32:24.412Z,65.27
2022-07-29T19:35:10.198Z,66.33
2022-07-29T19:37:37.397Z,66.79
2022-07-29T19:40:04.961Z,66.84
2022-07-29T19:42:31.444Z,67.35
2022-07-29T19:44:58.102Z,68.20
2022-07-29T19:47:24.810Z,68.43
2022-07-29T19:49:51.568Z,69.17
2022-07-29T19:52:18.095Z,70.34
2022-07-29T19:54:44.765Z,70.08
2022-07-29T19:57:11.437Z,69.94
2022-07-29T19:59:37.963Z,70.67
2022-07-29T20:02:04.900Z,71.58
2022-07-29T20:04:31.950Z,72.09
2022-07-29T20:07:01.627Z,72.58
2022-07-29T20:09:28.651Z,72.45
2022-07-29T20:11:56.277Z,72.82
2022-07-29T20:14:23.591Z,72.74
2022-07-29T20:16:54.406Z,74.34
2022-07-29T20:19:21.026Z,73.72
2022-07-29T20:21:47.672Z,75.58
2022-07-29T20:24:14.465Z,74.66
2022-07-29T20:26:41.128Z,74.00
2022-07-29T20:29:07.717Z,73.55
2022-07-29T20:31:34.251Z,74.74
2022-07-29T20:34:00.884Z,74.37
2022-07-29T20:36:28.113Z,74.47
2022-07-29T20:38:55.130Z,73.61
2022-07-29T20:41:21.741Z,73.71
2022-07-29T20:43:51.358Z,73.20
2022-07-29T20:46:18.296Z,73.12
2022-07-29T20:48:45.357Z,73.60
2022-07-29T20:51:11.990Z,75.95
2022-07-29T20:53:39.889Z,75.98
2022-07-29T20:56:06.700Z,75.67
2022-07-29T20:58:34.308Z,77.52
2022-07-29T21:01:01.054Z,75.03
2022-07-29T21:03:27.695Z,77.74
2022-07-29T21:05:54.237Z,79.22
2022-07-29T21:08:21.155Z,79.56
2022-07-29T21:10:47.825Z,79.28
2022-07-29T21:13:14.506Z,81.36
2022-07-29T21:15:44.603Z,83.30
2022-07-29T21:18:26.774Z,83.84
2022-07-29T21:21:02.482Z,82.87
2022-07-29T21:23:30.000Z,82.19
2022-07-29T21:25:56.616Z,81.31
2022-07-29T21:28:41.407Z,80.56
2022-07-29T21:31:12.534Z,80.38
2022-07-29T21:33:43.696Z,82.40
2022-07-29T21:36:45.414Z,82.07
2022-07-29T21:38:57.866Z,82.61
2022-07-29T21:41:24.380Z,84.25
2022-07-29T21:43:50.884Z,85.92
2022-07-29T21:46:19.075Z,86.55
2022-07-29T21:48:45.657Z,88.23
2022-07-29T21:51:12.192Z,89.56
2022-07-29T21:53:38.857Z,94.01
2022-07-29T21:56:06.564Z,98.22
2022-07-29T21:58:36.822Z,98.91
2022-07-29T22:01:03.384Z,100.00
2022-07-29T22:03:29.909Z,100.00
2022-07-29T22:05:56.614Z,100.00
2022-07-29T22:08:23.130Z,100.00
2022-07-29T22:10:49.686Z,100.00
2022-07-29T22:13:16.607Z,100.00
2022-07-29T22:15:46.909Z,100.00
2022-07-29T22:18:13.715Z,100.00
2022-07-29T22:20:49.563Z,100.00
2022-07-29T22:23:16.062Z,100.00
2022-07-29T22:25:42.582Z,100.00
2022-07-29T22:28:09.096Z,100.00
2022-07-29T22:30:35.667Z,100.00
2022-07-29T22:33:02.186Z,100.00
2022-07-29T22:35:28.795Z,100.00
2022-07-29T22:37:55.290Z,100.00
2022-07-29T22:40:21.782Z,100.00
2022-07-29T22:42:48.387Z,100.00
2022-07-29T22:45:14.906Z,100.00
2022-07-29T22:47:48.256Z,100.00
2022-07-29T22:50:15.543Z,100.00
2022-07-29T22:52:42.059Z,100.00
2022-07-29T22:55:08.769Z,100.00
2022-07-29T22:57:35.324Z,100.00
2022-07-29T23:00:02.412Z,100.00
2022-07-29T23:02:29.136Z,100.00
2022-07-29T23:04:55.688Z,100.00
2022-07-29T23:07:22.258Z,100.00
2022-07-29T23:09:48.803Z,100.00
2022-07-29T23:12:15.322Z,100.00
2022-07-29T23:14:41.945Z,100.00
2022-07-29T23:17:08.531Z,100.00
2022-07-29T23:19:35.117Z,100.00
2022-07-29T23:22:01.693Z,100.00
2022-07-29T23:24:28.189Z,100.00
2022-07-29T23:26:55.017Z,100.00
2022-07-29T23:29:21.570Z,100.00
2022-07-29T23:31:48.510Z,100.00
2022-07-29T23:34:15.086Z,100.00
2022-07-29T23:36:42.304Z,100.00
2022-07-29T23:39:13.067Z,100.00
2022-07-29T23:41:40.156Z,100.00
2022-07-29T23:44:06.652Z,100.00
2022-07-29T23:46:33.518Z,100.00
2022-07-29T23:49:00.193Z,100.00
2022-07-29T23:51:28.968Z,100.00
2022-07-29T23:53:55.714Z,100.00
2022-07-29T23:56:22.214Z,100.00
2022-07-29T23:58:48.988Z,100.00
